sensor_id;sensor_type;location;lat;lon;timestamp;P1;durP1;ratioP1;P2;durP2;ratioP2
7316;SDS011;3699;51.462;6.696;2023-04-01T00:01:19;8.03;;;2.23;;
7316;SDS011;3699;51.462;6.696;2023-04-01T00:03:46;2.87;;;1.90;;
7316;SDS011;3699;51.462;6.696;2023-04-01T00:06:13;4.20;;;1.70;;
7316;SDS011;3699;51.462;6.696;2023-04-01T00:08:41;8.00;;;2.00;;
7316;SDS011;3699;51.462;6.696;2023-04-01T00:11:09;7.20;;;1.80;;
7316;SDS011;3699;51.462;6.696;2023-04-01T00:13:36;4.03;;;1.90;;
7316;SDS011;3699;51.462;6.696;2023-04-01T00:16:02;5.63;;;1.70;;
7316;SDS011;3699;51.462;6.696;2023-04-01T00:18:31;6.83;;;2.03;;
7316;SDS011;3699;51.462;6.696;2023-04-01T00:20:58;6.50;;;2.00;;
7316;SDS011;3699;51.462;6.696;2023-04-01T00:23:24;3.97;;;1.70;;
7316;SDS011;3699;51.462;6.696;2023-04-01T00:25:51;4.67;;;1.90;;
7316;SDS011;3699;51.462;6.696;2023-04-01T00:28:18;5.33;;;1.87;;
7316;SDS011;3699;51.462;6.696;2023-04-01T00:30:46;2.83;;;1.47;;
7316;SDS011;3699;51.462;6.696;2023-04-01T00:33:13;6.93;;;1.60;;
7316;SDS011;3699;51.462;6.696;2023-04-01T00:35:41;4.07;;;1.70;;
7316;SDS011;3699;51.462;6.696;2023-04-01T00:38:08;2.57;;;1.50;;
7316;SDS011;3699;51.462;6.696;2023-04-01T00:40:37;3.37;;;1.80;;
7316;SDS011;3699;51.462;6.696;2023-04-01T00:43:08;1.67;;;1.53;;
7316;SDS011;3699;51.462;6.696;2023-04-01T00:45:38;3.10;;;1.60;;
7316;SDS011;3699;51.462;6.696;2023-04-01T00:48:07;5.33;;;1.57;;
7316;SDS011;3699;51.462;6.696;2023-04-01T00:50:36;2.27;;;1.47;;
7316;SDS011;3699;51.462;6.696;2023-04-01T00:53:08;1.30;;;1.27;;
7316;SDS011;3699;51.462;6.696;2023-04-01T00:55:35;3.90;;;2.13;;
7316;SDS011;3699;51.462;6.696;2023-04-01T00:58:07;2.10;;;1.70;;
7316;SDS011;3699;51.462;6.696;2023-04-01T01:00:39;6.43;;;1.70;;
7316;SDS011;3699;51.462;6.696;2023-04-01T01:03:06;2.00;;;1.50;;
7316;SDS011;3699;51.462;6.696;2023-04-01T01:05:36;4.10;;;1.30;;
7316;SDS011;3699;51.462;6.696;2023-04-01T01:08:17;3.30;;;1.53;;
7316;SDS011;3699;51.462;6.696;2023-04-01T01:10:51;1.60;;;1.40;;
7316;SDS011;3699;51.462;6.696;2023-04-01T01:13:20;3.23;;;1.57;;
7316;SDS011;3699;51.462;6.696;2023-04-01T01:15:53;1.50;;;1.40;;
7316;SDS011;3699;51.462;6.696;2023-04-01T01:18:25;3.40;;;1.73;;
7316;SDS011;3699;51.462;6.696;2023-04-01T01:27:02;2.00;;;1.67;;
7316;SDS011;3699;51.462;6.696;2023-04-01T01:29:38;2.90;;;1.77;;
7316;SDS011;3699;51.462;6.696;2023-04-01T01:32:13;3.40;;;2.03;;
7316;SDS011;3699;51.462;6.696;2023-04-01T01:34:47;3.47;;;1.60;;
7316;SDS011;3699;51.462;6.696;2023-04-01T01:37:23;1.67;;;1.57;;
7316;SDS011;3699;51.462;6.696;2023-04-01T01:39:54;2.90;;;1.87;;
7316;SDS011;3699;51.462;6.696;2023-04-01T01:42:24;1.73;;;1.40;;
7316;SDS011;3699;51.462;6.696;2023-04-01T01:44:54;2.07;;;1.60;;
7316;SDS011;3699;51.462;6.696;2023-04-01T01:47:24;1.80;;;1.57;;
7316;SDS011;3699;51.462;6.696;2023-04-01T01:49:52;2.43;;;1.47;;
7316;SDS011;3699;51.462;6.696;2023-04-01T01:52:22;2.33;;;1.43;;
7316;SDS011;3699;51.462;6.696;2023-04-01T01:54:50;2.50;;;1.50;;
7316;SDS011;3699;51.462;6.696;2023-04-01T01:57:19;3.60;;;1.50;;
7316;SDS011;3699;51.462;6.696;2023-04-01T01:59:49;5.67;;;1.30;;
7316;SDS011;3699;51.462;6.696;2023-04-01T02:02:18;1.67;;;1.57;;
7316;SDS011;3699;51.462;6.696;2023-04-01T02:04:47;2.90;;;1.63;;
7316;SDS011;3699;51.462;6.696;2023-04-01T02:07:16;3.83;;;1.67;;
7316;SDS011;3699;51.462;6.696;2023-04-01T02:09:47;3.07;;;1.40;;
7316;SDS011;3699;51.462;6.696;2023-04-01T02:12:14;1.60;;;1.50;;
7316;SDS011;3699;51.462;6.696;2023-04-01T02:14:43;1.67;;;1.40;;
7316;SDS011;3699;51.462;6.696;2023-04-01T02:17:16;4.57;;;1.40;;
7316;SDS011;3699;51.462;6.696;2023-04-01T02:19:46;1.40;;;1.30;;
7316;SDS011;3699;51.462;6.696;2023-04-01T02:22:16;2.23;;;1.47;;
7316;SDS011;3699;51.462;6.696;2023-04-01T02:24:47;1.70;;;1.50;;
7316;SDS011;3699;51.462;6.696;2023-04-01T02:27:16;2.10;;;1.53;;
7316;SDS011;3699;51.462;6.696;2023-04-01T02:29:43;4.83;;;1.73;;
7316;SDS011;3699;51.462;6.696;2023-04-01T02:32:10;3.77;;;1.50;;
7316;SDS011;3699;51.462;6.696;2023-04-01T02:34:38;1.53;;;1.33;;
7316;SDS011;3699;51.462;6.696;2023-04-01T02:37:05;2.10;;;1.20;;
7316;SDS011;3699;51.462;6.696;2023-04-01T02:39:32;3.90;;;1.70;;
7316;SDS011;3699;51.462;6.696;2023-04-01T02:42:00;2.10;;;1.40;;
7316;SDS011;3699;51.462;6.696;2023-04-01T02:44:27;1.60;;;1.47;;
7316;SDS011;3699;51.462;6.696;2023-04-01T02:46:54;2.63;;;1.63;;
7316;SDS011;3699;51.462;6.696;2023-04-01T02:49:21;1.40;;;1.30;;
7316;SDS011;3699;51.462;6.696;2023-04-01T02:51:48;1.43;;;1.30;;
7316;SDS011;3699;51.462;6.696;2023-04-01T02:54:16;3.33;;;1.27;;
7316;SDS011;3699;51.462;6.696;2023-04-01T02:56:43;2.93;;;1.70;;
7316;SDS011;3699;51.462;6.696;2023-04-01T02:59:12;1.50;;;1.40;;
7316;SDS011;3699;51.462;6.696;2023-04-01T03:01:39;1.47;;;1.33;;
7316;SDS011;3699;51.462;6.696;2023-04-01T03:04:06;1.47;;;1.37;;
7316;SDS011;3699;51.462;6.696;2023-04-01T03:06:32;2.57;;;1.40;;
7316;SDS011;3699;51.462;6.696;2023-04-01T03:08:59;1.63;;;1.53;;
7316;SDS011;3699;51.462;6.696;2023-04-01T03:11:26;1.90;;;1.80;;
7316;SDS011;3699;51.462;6.696;2023-04-01T03:13:53;3.27;;;1.87;;
7316;SDS011;3699;51.462;6.696;2023-04-01T03:16:22;2.37;;;2.10;;
7316;SDS011;3699;51.462;6.696;2023-04-01T03:18:48;3.13;;;1.83;;
7316;SDS011;3699;51.462;6.696;2023-04-01T03:21:18;2.60;;;1.70;;
7316;SDS011;3699;51.462;6.696;2023-04-01T03:23:46;3.10;;;1.87;;
7316;SDS011;3699;51.462;6.696;2023-04-01T03:26:14;3.90;;;1.93;;
7316;SDS011;3699;51.462;6.696;2023-04-01T03:28:41;5.13;;;2.10;;
7316;SDS011;3699;51.462;6.696;2023-04-01T03:31:08;3.43;;;1.97;;
7316;SDS011;3699;51.462;6.696;2023-04-01T03:33:36;3.93;;;2.07;;
7316;SDS011;3699;51.462;6.696;2023-04-01T03:36:03;1.80;;;1.70;;
7316;SDS011;3699;51.462;6.696;2023-04-01T03:38:31;2.60;;;1.77;;
7316;SDS011;3699;51.462;6.696;2023-04-01T03:40:58;2.80;;;1.67;;
7316;SDS011;3699;51.462;6.696;2023-04-01T03:43:25;3.47;;;1.90;;
7316;SDS011;3699;51.462;6.696;2023-04-01T03:45:52;2.27;;;2.03;;
7316;SDS011;3699;51.462;6.696;2023-04-01T03:48:20;5.70;;;2.40;;
7316;SDS011;3699;51.462;6.696;2023-04-01T03:50:48;3.20;;;1.90;;
7316;SDS011;3699;51.462;6.696;2023-04-01T03:53:15;3.47;;;1.97;;
7316;SDS011;3699;51.462;6.696;2023-04-01T03:55:41;2.50;;;1.60;;
7316;SDS011;3699;51.462;6.696;2023-04-01T03:58:08;3.70;;;2.03;;
7316;SDS011;3699;51.462;6.696;2023-04-01T04:00:35;1.93;;;1.80;;
7316;SDS011;3699;51.462;6.696;2023-04-01T04:03:02;2.20;;;2.00;;
7316;SDS011;3699;51.462;6.696;2023-04-01T04:05:29;4.00;;;2.37;;
7316;SDS011;3699;51.462;6.696;2023-04-01T04:07:57;2.27;;;1.93;;
7316;SDS011;3699;51.462;6.696;2023-04-01T04:10:24;2.30;;;2.03;;
7316;SDS011;3699;51.462;6.696;2023-04-01T04:12:51;1.87;;;1.77;;
7316;SDS011;3699;51.462;6.696;2023-04-01T04:15:18;4.23;;;1.87;;
7316;SDS011;3699;51.462;6.696;2023-04-01T04:17:45;4.27;;;2.67;;
7316;SDS011;3699;51.462;6.696;2023-04-01T04:20:12;2.10;;;2.00;;
7316;SDS011;3699;51.462;6.696;2023-04-01T04:22:39;2.07;;;1.97;;
7316;SDS011;3699;51.462;6.696;2023-04-01T04:25:08;3.10;;;1.87;;
7316;SDS011;3699;51.462;6.696;2023-04-01T04:27:35;4.97;;;2.67;;
7316;SDS011;3699;51.462;6.696;2023-04-01T04:30:02;2.87;;;2.20;;
7316;SDS011;3699;51.462;6.696;2023-04-01T04:32:29;2.40;;;2.07;;
7316;SDS011;3699;51.462;6.696;2023-04-01T04:34:56;2.33;;;1.97;;
7316;SDS011;3699;51.462;6.696;2023-04-01T04:37:23;2.70;;;2.13;;
7316;SDS011;3699;51.462;6.696;2023-04-01T04:39:51;2.50;;;2.30;;
7316;SDS011;3699;51.462;6.696;2023-04-01T04:42:19;3.37;;;2.20;;
7316;SDS011;3699;51.462;6.696;2023-04-01T04:44:46;2.70;;;2.30;;
7316;SDS011;3699;51.462;6.696;2023-04-01T04:47:12;4.53;;;2.80;;
7316;SDS011;3699;51.462;6.696;2023-04-01T04:49:39;4.43;;;3.30;;
7316;SDS011;3699;51.462;6.696;2023-04-01T04:52:06;2.83;;;2.50;;
7316;SDS011;3699;51.462;6.696;2023-04-01T04:54:32;3.00;;;2.70;;
7316;SDS011;3699;51.462;6.696;2023-04-01T04:57:00;4.10;;;2.70;;
7316;SDS011;3699;51.462;6.696;2023-04-01T04:59:28;2.47;;;2.20;;
7316;SDS011;3699;51.462;6.696;2023-04-01T05:01:55;4.27;;;2.30;;
7316;SDS011;3699;51.462;6.696;2023-04-01T05:04:21;3.23;;;2.93;;
7316;SDS011;3699;51.462;6.696;2023-04-01T05:06:48;2.93;;;2.63;;
7316;SDS011;3699;51.462;6.696;2023-04-01T05:09:16;4.67;;;3.07;;
7316;SDS011;3699;51.462;6.696;2023-04-01T05:11:43;2.43;;;2.23;;
7316;SDS011;3699;51.462;6.696;2023-04-01T05:14:12;2.80;;;2.40;;
7316;SDS011;3699;51.462;6.696;2023-04-01T05:16:40;3.03;;;2.73;;
7316;SDS011;3699;51.462;6.696;2023-04-01T05:19:07;3.63;;;2.67;;
7316;SDS011;3699;51.462;6.696;2023-04-01T05:21:34;3.50;;;2.83;;
7316;SDS011;3699;51.462;6.696;2023-04-01T05:24:01;5.10;;;2.70;;
7316;SDS011;3699;51.462;6.696;2023-04-01T05:26:28;3.07;;;2.77;;
7316;SDS011;3699;51.462;6.696;2023-04-01T05:28:55;3.23;;;2.83;;
7316;SDS011;3699;51.462;6.696;2023-04-01T05:31:22;3.87;;;3.30;;
7316;SDS011;3699;51.462;6.696;2023-04-01T05:33:51;4.70;;;3.30;;
7316;SDS011;3699;51.462;6.696;2023-04-01T05:36:19;4.30;;;3.50;;
7316;SDS011;3699;51.462;6.696;2023-04-01T05:38:45;8.33;;;3.90;;
7316;SDS011;3699;51.462;6.696;2023-04-01T05:41:12;6.27;;;4.53;;
7316;SDS011;3699;51.462;6.696;2023-04-01T05:43:40;5.60;;;4.50;;
7316;SDS011;3699;51.462;6.696;2023-04-01T05:46:07;7.47;;;4.43;;
7316;SDS011;3699;51.462;6.696;2023-04-01T05:48:34;5.20;;;4.13;;
7316;SDS011;3699;51.462;6.696;2023-04-01T05:51:03;3.57;;;3.27;;
7316;SDS011;3699;51.462;6.696;2023-04-01T05:53:30;4.93;;;3.93;;
7316;SDS011;3699;51.462;6.696;2023-04-01T05:56:01;4.53;;;4.13;;
7316;SDS011;3699;51.462;6.696;2023-04-01T05:58:28;6.83;;;4.03;;
7316;SDS011;3699;51.462;6.696;2023-04-01T06:00:59;4.60;;;4.00;;
7316;SDS011;3699;51.462;6.696;2023-04-01T06:03:27;4.50;;;4.10;;
7316;SDS011;3699;51.462;6.696;2023-04-01T06:05:53;5.23;;;3.90;;
7316;SDS011;3699;51.462;6.696;2023-04-01T06:08:21;6.03;;;4.07;;
7316;SDS011;3699;51.462;6.696;2023-04-01T06:11:00;4.47;;;3.93;;
7316;SDS011;3699;51.462;6.696;2023-04-01T06:13:45;4.50;;;4.07;;
7316;SDS011;3699;51.462;6.696;2023-04-01T06:16:25;6.40;;;4.40;;
7316;SDS011;3699;51.462;6.696;2023-04-01T06:19:00;4.90;;;4.40;;
7316;SDS011;3699;51.462;6.696;2023-04-01T06:24:40;5.23;;;4.27;;
7316;SDS011;3699;51.462;6.696;2023-04-01T06:27:33;5.93;;;4.47;;
7316;SDS011;3699;51.462;6.696;2023-04-01T06:30:16;5.90;;;4.37;;
7316;SDS011;3699;51.462;6.696;2023-04-01T06:33:06;5.50;;;4.57;;
7316;SDS011;3699;51.462;6.696;2023-04-01T06:35:45;5.13;;;4.63;;
7316;SDS011;3699;51.462;6.696;2023-04-01T06:38:35;7.10;;;4.70;;
7316;SDS011;3699;51.462;6.696;2023-04-01T06:41:23;4.97;;;4.20;;
7316;SDS011;3699;51.462;6.696;2023-04-01T06:44:06;5.27;;;4.60;;
7316;SDS011;3699;51.462;6.696;2023-04-01T06:46:42;5.20;;;4.57;;
7316;SDS011;3699;51.462;6.696;2023-04-01T06:49:17;5.67;;;4.77;;
7316;SDS011;3699;51.462;6.696;2023-04-01T06:51:57;5.00;;;4.47;;
7316;SDS011;3699;51.462;6.696;2023-04-01T06:54:32;5.47;;;4.53;;
7316;SDS011;3699;51.462;6.696;2023-04-01T06:57:05;5.60;;;4.70;;
7316;SDS011;3699;51.462;6.696;2023-04-01T06:59:43;5.43;;;4.60;;
7316;SDS011;3699;51.462;6.696;2023-04-01T07:02:14;6.40;;;5.13;;
7316;SDS011;3699;51.462;6.696;2023-04-01T07:04:48;5.20;;;4.70;;
7316;SDS011;3699;51.462;6.696;2023-04-01T07:07:20;6.53;;;4.73;;
7316;SDS011;3699;51.462;6.696;2023-04-01T07:09:53;8.17;;;4.90;;
7316;SDS011;3699;51.462;6.696;2023-04-01T07:12:30;6.60;;;5.20;;
7316;SDS011;3699;51.462;6.696;2023-04-01T07:15:05;5.53;;;5.03;;
7316;SDS011;3699;51.462;6.696;2023-04-01T07:17:42;5.67;;;5.07;;
7316;SDS011;3699;51.462;6.696;2023-04-01T07:20:12;6.70;;;5.50;;
7316;SDS011;3699;51.462;6.696;2023-04-01T07:22:45;6.63;;;5.63;;
7316;SDS011;3699;51.462;6.696;2023-04-01T07:25:15;7.40;;;5.83;;
7316;SDS011;3699;51.462;6.696;2023-04-01T07:27:45;7.13;;;5.57;;
7316;SDS011;3699;51.462;6.696;2023-04-01T07:30:13;6.40;;;5.23;;
7316;SDS011;3699;51.462;6.696;2023-04-01T07:32:42;6.27;;;5.67;;
7316;SDS011;3699;51.462;6.696;2023-04-01T07:35:16;7.00;;;5.30;;
7316;SDS011;3699;51.462;6.696;2023-04-01T07:37:57;6.33;;;5.50;;
7316;SDS011;3699;51.462;6.696;2023-04-01T07:40:34;7.20;;;5.60;;
7316;SDS011;3699;51.462;6.696;2023-04-01T07:46:07;6.03;;;5.00;;
7316;SDS011;3699;51.462;6.696;2023-04-01T07:48:44;5.90;;;5.17;;
7316;SDS011;3699;51.462;6.696;2023-04-01T07:51:20;6.97;;;5.37;;
7316;SDS011;3699;51.462;6.696;2023-04-01T07:53:54;6.20;;;4.80;;
7316;SDS011;3699;51.462;6.696;2023-04-01T07:56:29;5.40;;;4.53;;
7316;SDS011;3699;51.462;6.696;2023-04-01T07:59:05;7.07;;;5.77;;
7316;SDS011;3699;51.462;6.696;2023-04-01T08:01:39;5.63;;;4.90;;
7316;SDS011;3699;51.462;6.696;2023-04-01T08:07:04;7.43;;;5.70;;
7316;SDS011;3699;51.462;6.696;2023-04-01T08:09:38;7.43;;;5.70;;
7316;SDS011;3699;51.462;6.696;2023-04-01T08:12:13;6.43;;;5.50;;
7316;SDS011;3699;51.462;6.696;2023-04-01T08:14:52;7.63;;;5.60;;
7316;SDS011;3699;51.462;6.696;2023-04-01T08:17:27;8.70;;;5.93;;
7316;SDS011;3699;51.462;6.696;2023-04-01T08:20:09;6.37;;;5.17;;
7316;SDS011;3699;51.462;6.696;2023-04-01T08:22:48;5.37;;;4.50;;
7316;SDS011;3699;51.462;6.696;2023-04-01T08:25:18;5.73;;;4.80;;
7316;SDS011;3699;51.462;6.696;2023-04-01T08:27:49;8.60;;;5.10;;
7316;SDS011;3699;51.462;6.696;2023-04-01T08:30:21;5.67;;;4.60;;
7316;SDS011;3699;51.462;6.696;2023-04-01T08:32:51;6.03;;;4.97;;
7316;SDS011;3699;51.462;6.696;2023-04-01T08:35:26;5.83;;;4.30;;
7316;SDS011;3699;51.462;6.696;2023-04-01T08:37:56;6.53;;;4.87;;
7316;SDS011;3699;51.462;6.696;2023-04-01T08:40:33;6.10;;;5.07;;
7316;SDS011;3699;51.462;6.696;2023-04-01T08:43:19;6.10;;;4.80;;
7316;SDS011;3699;51.462;6.696;2023-04-01T08:46:09;5.90;;;5.03;;
7316;SDS011;3699;51.462;6.696;2023-04-01T08:48:47;7.17;;;5.00;;
7316;SDS011;3699;51.462;6.696;2023-04-01T08:54:37;5.80;;;4.80;;
7316;SDS011;3699;51.462;6.696;2023-04-01T08:57:35;7.30;;;5.10;;
7316;SDS011;3699;51.462;6.696;2023-04-01T09:00:15;5.80;;;5.10;;
7316;SDS011;3699;51.462;6.696;2023-04-01T09:03:12;8.13;;;5.30;;
7316;SDS011;3699;51.462;6.696;2023-04-01T09:06:10;8.73;;;5.93;;
7316;SDS011;3699;51.462;6.696;2023-04-01T09:08:52;7.43;;;5.73;;
7316;SDS011;3699;51.462;6.696;2023-04-01T09:11:35;9.77;;;6.10;;
7316;SDS011;3699;51.462;6.696;2023-04-01T09:14:24;8.57;;;6.27;;
7316;SDS011;3699;51.462;6.696;2023-04-01T09:17:27;9.93;;;6.43;;
7316;SDS011;3699;51.462;6.696;2023-04-01T09:20:16;8.93;;;6.60;;
7316;SDS011;3699;51.462;6.696;2023-04-01T09:22:56;8.63;;;6.40;;
7316;SDS011;3699;51.462;6.696;2023-04-01T09:25:38;9.13;;;6.83;;
7316;SDS011;3699;51.462;6.696;2023-04-01T09:28:17;8.97;;;6.70;;
7316;SDS011;3699;51.462;6.696;2023-04-01T09:36:46;9.00;;;7.63;;
7316;SDS011;3699;51.462;6.696;2023-04-01T09:39:23;9.37;;;6.90;;
7316;SDS011;3699;51.462;6.696;2023-04-01T09:42:06;9.00;;;7.23;;
7316;SDS011;3699;51.462;6.696;2023-04-01T09:44:49;8.53;;;7.00;;
7316;SDS011;3699;51.462;6.696;2023-04-01T09:47:28;9.47;;;6.90;;
7316;SDS011;3699;51.462;6.696;2023-04-01T09:50:17;10.03;;;7.37;;
7316;SDS011;3699;51.462;6.696;2023-04-01T09:53:02;15.90;;;8.33;;
7316;SDS011;3699;51.462;6.696;2023-04-01T09:55:52;10.87;;;8.10;;
7316;SDS011;3699;51.462;6.696;2023-04-01T10:01:34;9.27;;;7.30;;
7316;SDS011;3699;51.462;6.696;2023-04-01T10:04:35;10.57;;;8.07;;
7316;SDS011;3699;51.462;6.696;2023-04-01T10:13:35;9.90;;;7.63;;
7316;SDS011;3699;51.462;6.696;2023-04-01T10:16:42;14.33;;;8.90;;
7316;SDS011;3699;51.462;6.696;2023-04-01T10:25:49;10.87;;;8.20;;
7316;SDS011;3699;51.462;6.696;2023-04-01T10:28:49;10.73;;;7.90;;
7316;SDS011;3699;51.462;6.696;2023-04-01T10:38:06;10.77;;;7.87;;
7316;SDS011;3699;51.462;6.696;2023-04-01T10:41:15;10.07;;;7.93;;
7316;SDS011;3699;51.462;6.696;2023-04-01T10:44:11;12.77;;;8.83;;
7316;SDS011;3699;51.462;6.696;2023-04-01T10:47:05;13.77;;;9.57;;
7316;SDS011;3699;51.462;6.696;2023-04-01T10:49:46;10.83;;;8.90;;
7316;SDS011;3699;51.462;6.696;2023-04-01T10:55:44;12.90;;;9.23;;
7316;SDS011;3699;51.462;6.696;2023-04-01T10:58:44;13.77;;;9.43;;
7316;SDS011;3699;51.462;6.696;2023-04-01T11:01:51;12.00;;;9.10;;
7316;SDS011;3699;51.462;6.696;2023-04-01T11:05:06;12.30;;;9.57;;
7316;SDS011;3699;51.462;6.696;2023-04-01T11:23:21;13.33;;;9.83;;
7316;SDS011;3699;51.462;6.696;2023-04-01T11:26:05;11.60;;;8.73;;
7316;SDS011;3699;51.462;6.696;2023-04-01T11:31:34;13.70;;;9.60;;
7316;SDS011;3699;51.462;6.696;2023-04-01T11:34:13;11.97;;;9.07;;
7316;SDS011;3699;51.462;6.696;2023-04-01T11:37:05;11.67;;;9.47;;
7316;SDS011;3699;51.462;6.696;2023-04-01T11:39:42;13.13;;;9.73;;
7316;SDS011;3699;51.462;6.696;2023-04-01T11:42:20;14.67;;;9.90;;
7316;SDS011;3699;51.462;6.696;2023-04-01T11:44:58;10.67;;;8.83;;
7316;SDS011;3699;51.462;6.696;2023-04-01T11:47:48;13.77;;;9.23;;
7316;SDS011;3699;51.462;6.696;2023-04-01T11:50:33;10.63;;;8.73;;
7316;SDS011;3699;51.462;6.696;2023-04-01T11:53:13;12.40;;;9.27;;
7316;SDS011;3699;51.462;6.696;2023-04-01T11:55:55;12.17;;;8.63;;
7316;SDS011;3699;51.462;6.696;2023-04-01T11:58:31;10.70;;;8.60;;
7316;SDS011;3699;51.462;6.696;2023-04-01T12:01:22;11.50;;;9.13;;
7316;SDS011;3699;51.462;6.696;2023-04-01T12:04:00;11.60;;;9.47;;
7316;SDS011;3699;51.462;6.696;2023-04-01T12:06:48;12.00;;;9.10;;
7316;SDS011;3699;51.462;6.696;2023-04-01T12:09:20;11.27;;;9.20;;
7316;SDS011;3699;51.462;6.696;2023-04-01T12:11:59;10.73;;;8.83;;
7316;SDS011;3699;51.462;6.696;2023-04-01T12:14:38;11.87;;;9.47;;
7316;SDS011;3699;51.462;6.696;2023-04-01T12:17:13;10.93;;;8.00;;
7316;SDS011;3699;51.462;6.696;2023-04-01T12:19:48;8.97;;;7.57;;
7316;SDS011;3699;51.462;6.696;2023-04-01T12:22:34;9.17;;;7.13;;
7316;SDS011;3699;51.462;6.696;2023-04-01T12:25:19;10.90;;;7.90;;
7316;SDS011;3699;51.462;6.696;2023-04-01T12:27:59;10.70;;;7.97;;
7316;SDS011;3699;51.462;6.696;2023-04-01T12:30:37;7.97;;;6.33;;
7316;SDS011;3699;51.462;6.696;2023-04-01T12:36:14;8.03;;;6.83;;
7316;SDS011;3699;51.462;6.696;2023-04-01T12:38:55;10.57;;;7.17;;
7316;SDS011;3699;51.462;6.696;2023-04-01T12:41:45;11.60;;;7.53;;
7316;SDS011;3699;51.462;6.696;2023-04-01T12:44:23;9.23;;;7.33;;
7316;SDS011;3699;51.462;6.696;2023-04-01T12:47:05;9.83;;;7.10;;
7316;SDS011;3699;51.462;6.696;2023-04-01T12:49:56;12.03;;;7.50;;
7316;SDS011;3699;51.462;6.696;2023-04-01T12:52:44;11.03;;;7.73;;
7316;SDS011;3699;51.462;6.696;2023-04-01T12:55:29;11.53;;;7.17;;
7316;SDS011;3699;51.462;6.696;2023-04-01T12:58:12;9.43;;;7.23;;
7316;SDS011;3699;51.462;6.696;2023-04-01T13:01:07;9.73;;;7.97;;
7316;SDS011;3699;51.462;6.696;2023-04-01T13:03:48;10.73;;;7.80;;
7316;SDS011;3699;51.462;6.696;2023-04-01T13:06:45;11.37;;;7.63;;
7316;SDS011;3699;51.462;6.696;2023-04-01T13:09:24;11.20;;;7.93;;
7316;SDS011;3699;51.462;6.696;2023-04-01T13:12:08;12.37;;;8.50;;
7316;SDS011;3699;51.462;6.696;2023-04-01T13:14:56;12.40;;;8.37;;
7316;SDS011;3699;51.462;6.696;2023-04-01T13:17:39;11.87;;;8.50;;
7316;SDS011;3699;51.462;6.696;2023-04-01T13:20:15;10.17;;;7.70;;
7316;SDS011;3699;51.462;6.696;2023-04-01T13:22:50;10.33;;;7.97;;
7316;SDS011;3699;51.462;6.696;2023-04-01T13:25:26;9.77;;;7.17;;
7316;SDS011;3699;51.462;6.696;2023-04-01T13:28:03;8.67;;;7.13;;
7316;SDS011;3699;51.462;6.696;2023-04-01T13:30:38;11.60;;;8.30;;
7316;SDS011;3699;51.462;6.696;2023-04-01T13:33:15;7.90;;;6.53;;
7316;SDS011;3699;51.462;6.696;2023-04-01T13:35:54;10.73;;;8.33;;
7316;SDS011;3699;51.462;6.696;2023-04-01T13:41:36;9.90;;;7.57;;
7316;SDS011;3699;51.462;6.696;2023-04-01T13:44:20;12.33;;;8.03;;
7316;SDS011;3699;51.462;6.696;2023-04-01T13:47:02;17.80;;;9.13;;
7316;SDS011;3699;51.462;6.696;2023-04-01T13:49:38;14.27;;;9.43;;
7316;SDS011;3699;51.462;6.696;2023-04-01T13:52:35;15.87;;;9.27;;
7316;SDS011;3699;51.462;6.696;2023-04-01T13:55:39;14.93;;;9.77;;
7316;SDS011;3699;51.462;6.696;2023-04-01T13:58:29;12.10;;;8.93;;
7316;SDS011;3699;51.462;6.696;2023-04-01T14:01:21;13.13;;;8.63;;
7316;SDS011;3699;51.462;6.696;2023-04-01T14:04:08;11.73;;;8.70;;
7316;SDS011;3699;51.462;6.696;2023-04-01T14:07:02;11.53;;;8.60;;
7316;SDS011;3699;51.462;6.696;2023-04-01T14:09:44;11.80;;;9.10;;
7316;SDS011;3699;51.462;6.696;2023-04-01T14:12:29;11.33;;;8.13;;
7316;SDS011;3699;51.462;6.696;2023-04-01T14:15:07;9.27;;;7.30;;
7316;SDS011;3699;51.462;6.696;2023-04-01T14:17:59;9.40;;;7.47;;
7316;SDS011;3699;51.462;6.696;2023-04-01T14:20:40;8.97;;;7.10;;
7316;SDS011;3699;51.462;6.696;2023-04-01T14:23:17;14.03;;;8.10;;
7316;SDS011;3699;51.462;6.696;2023-04-01T14:26:19;12.40;;;7.50;;
7316;SDS011;3699;51.462;6.696;2023-04-01T14:29:02;11.53;;;8.27;;
7316;SDS011;3699;51.462;6.696;2023-04-01T14:31:51;10.47;;;8.00;;
7316;SDS011;3699;51.462;6.696;2023-04-01T14:34:34;9.47;;;7.23;;
7316;SDS011;3699;51.462;6.696;2023-04-01T14:37:20;11.10;;;7.47;;
7316;SDS011;3699;51.462;6.696;2023-04-01T14:40:14;8.80;;;7.13;;
7316;SDS011;3699;51.462;6.696;2023-04-01T14:45:44;8.43;;;7.10;;
7316;SDS011;3699;51.462;6.696;2023-04-01T14:48:21;10.07;;;7.23;;
7316;SDS011;3699;51.462;6.696;2023-04-01T14:50:55;8.20;;;6.97;;
7316;SDS011;3699;51.462;6.696;2023-04-01T14:53:29;10.77;;;7.67;;
7316;SDS011;3699;51.462;6.696;2023-04-01T14:56:03;9.07;;;7.17;;
7316;SDS011;3699;51.462;6.696;2023-04-01T14:58:39;8.83;;;7.67;;
7316;SDS011;3699;51.462;6.696;2023-04-01T15:01:19;10.90;;;7.47;;
7316;SDS011;3699;51.462;6.696;2023-04-01T15:03:57;12.80;;;8.00;;
7316;SDS011;3699;51.462;6.696;2023-04-01T15:06:38;12.30;;;8.57;;
7316;SDS011;3699;51.462;6.696;2023-04-01T15:09:27;10.03;;;8.60;;
7316;SDS011;3699;51.462;6.696;2023-04-01T15:12:04;9.87;;;7.70;;
7316;SDS011;3699;51.462;6.696;2023-04-01T15:17:43;9.60;;;7.40;;
7316;SDS011;3699;51.462;6.696;2023-04-01T15:20:24;7.63;;;6.83;;
7316;SDS011;3699;51.462;6.696;2023-04-01T15:23:04;9.30;;;6.77;;
7316;SDS011;3699;51.462;6.696;2023-04-01T15:25:42;11.77;;;6.53;;
7316;SDS011;3699;51.462;6.696;2023-04-01T15:28:20;10.47;;;7.33;;
7316;SDS011;3699;51.462;6.696;2023-04-01T15:30:56;8.57;;;7.00;;
7316;SDS011;3699;51.462;6.696;2023-04-01T15:36:34;8.93;;;7.07;;
7316;SDS011;3699;51.462;6.696;2023-04-01T15:39:14;7.77;;;6.77;;
7316;SDS011;3699;51.462;6.696;2023-04-01T15:41:50;8.50;;;7.20;;
7316;SDS011;3699;51.462;6.696;2023-04-01T15:44:37;8.47;;;7.17;;
7316;SDS011;3699;51.462;6.696;2023-04-01T15:50:07;8.37;;;6.77;;
7316;SDS011;3699;51.462;6.696;2023-04-01T15:52:57;9.50;;;7.07;;
7316;SDS011;3699;51.462;6.696;2023-04-01T15:55:36;8.47;;;6.70;;
7316;SDS011;3699;51.462;6.696;2023-04-01T15:58:16;9.27;;;7.40;;
7316;SDS011;3699;51.462;6.696;2023-04-01T16:01:03;7.93;;;6.63;;
7316;SDS011;3699;51.462;6.696;2023-04-01T16:03:39;7.70;;;6.60;;
7316;SDS011;3699;51.462;6.696;2023-04-01T16:06:27;12.33;;;6.70;;
7316;SDS011;3699;51.462;6.696;2023-04-01T16:09:08;8.73;;;7.07;;
7316;SDS011;3699;51.462;6.696;2023-04-01T16:11:56;8.70;;;6.20;;
7316;SDS011;3699;51.462;6.696;2023-04-01T16:14:29;8.07;;;6.30;;
7316;SDS011;3699;51.462;6.696;2023-04-01T16:17:13;7.60;;;6.33;;
7316;SDS011;3699;51.462;6.696;2023-04-01T16:19:49;7.63;;;6.77;;
7316;SDS011;3699;51.462;6.696;2023-04-01T16:22:19;8.97;;;6.47;;
7316;SDS011;3699;51.462;6.696;2023-04-01T16:24:52;7.83;;;6.20;;
7316;SDS011;3699;51.462;6.696;2023-04-01T16:27:42;8.90;;;6.80;;
7316;SDS011;3699;51.462;6.696;2023-04-01T16:30:22;7.47;;;6.43;;
7316;SDS011;3699;51.462;6.696;2023-04-01T16:32:59;8.73;;;6.03;;
7316;SDS011;3699;51.462;6.696;2023-04-01T16:35:31;7.90;;;7.10;;
7316;SDS011;3699;51.462;6.696;2023-04-01T16:38:08;12.90;;;7.50;;
7316;SDS011;3699;51.462;6.696;2023-04-01T16:40:43;11.33;;;7.30;;
7316;SDS011;3699;51.462;6.696;2023-04-01T16:43:18;10.60;;;7.40;;
7316;SDS011;3699;51.462;6.696;2023-04-01T16:45:56;8.53;;;6.67;;
7316;SDS011;3699;51.462;6.696;2023-04-01T16:48:45;8.13;;;7.07;;
7316;SDS011;3699;51.462;6.696;2023-04-01T16:51:25;9.63;;;7.60;;
7316;SDS011;3699;51.462;6.696;2023-04-01T16:54:01;11.20;;;8.57;;
7316;SDS011;3699;51.462;6.696;2023-04-01T16:56:36;15.83;;;9.47;;
7316;SDS011;3699;51.462;6.696;2023-04-01T16:59:13;12.17;;;9.17;;
7316;SDS011;3699;51.462;6.696;2023-04-01T17:01:47;11.73;;;9.13;;
7316;SDS011;3699;51.462;6.696;2023-04-01T17:04:19;10.40;;;8.77;;
7316;SDS011;3699;51.462;6.696;2023-04-01T17:06:53;16.03;;;8.77;;
7316;SDS011;3699;51.462;6.696;2023-04-01T17:09:30;11.07;;;8.77;;
7316;SDS011;3699;51.462;6.696;2023-04-01T17:12:07;11.73;;;8.87;;
7316;SDS011;3699;51.462;6.696;2023-04-01T17:14:44;11.87;;;9.37;;
7316;SDS011;3699;51.462;6.696;2023-04-01T17:17:18;10.23;;;8.40;;
7316;SDS011;3699;51.462;6.696;2023-04-01T17:20:07;11.00;;;8.20;;
7316;SDS011;3699;51.462;6.696;2023-04-01T17:22:47;10.47;;;8.27;;
7316;SDS011;3699;51.462;6.696;2023-04-01T17:25:27;10.57;;;8.77;;
7316;SDS011;3699;51.462;6.696;2023-04-01T17:28:05;11.47;;;9.23;;
7316;SDS011;3699;51.462;6.696;2023-04-01T17:30:42;11.17;;;9.50;;
7316;SDS011;3699;51.462;6.696;2023-04-01T17:36:03;15.37;;;11.50;;